6VG4 weather

Stonesprings Heliport
Arcola, Virginia, United States

Public forecast

Using degrees Fahrenheit for public forecast. Weather courtesy of forecast.io.

METAR (pilot weather report)

Closest report is Washington Dulles International Airport, 4.0 nm (7.4 km) E. Retrieved 2019/05/26 15:52 UTC (36 minutes ago):

KIAD 261552Z 33007KT 10SM SCT048 SCT120 BKN250 31/19 A3002 RMK AO2 SLP164 T03060194

TAF (pilot weather forecast)

Closest forecast is Washington Dulles International Airport, 4.0 nm (7.4 km) E. Retrieved 2019/05/26 12:42 UTC (4 hours ago):

TAF KIAD 261140Z 2612/2718 28005KT P6SM FEW110 SCT200 FM261800 28008KT P6SM VCTS SCT050CB BKN200 FM262100 29009KT P6SM -TSRA BKN045CB BKN200 FM270000 31007KT P6SM SCT050 BKN150 FM270900 31004KT 4SM BR SCT020 OVC060 FM271200 34004KT P6SM BKN050